Unique Explorer — VRGT8 — position and weather

sailwx.info

Track history (hours):
 
Tides and Currents Weather Stations Pressure Air Temp Water Temp Dewpoint Dewpoint Depression Visibility Wind Speed Wind Dir Waves Ship Positions

Unique Explorer

Last reported at 2018-Feb-17 13:43 UTC. Time now 2018-Feb-19 21:48 UTC.
Position N 42°25' W 070°05'.

Length 183 m; draft 8 m.

Type: Tanker. MMSI: 477786800.

Date/timePositionNaut miles runAvg speedWind from/ knotsBaromVisibWave heightAir tempDewpointWater temp
2018-Feb-17 13:43N 42°25' W 070°05'314.2
2018-Feb-17 13:30N 42°25' W 070°09'713.5
2018-Feb-17 13:00N 42°25' W 070°19'712.8
2018-Feb-17 12:30N 42°25' W 070°27'612.8
2018-Feb-17 12:00N 42°25' W 070°36'713.0
2018-Feb-17 11:30N 42°25' W 070°45'612.8
2018-Feb-17 11:00N 42°23' W 070°53'5 9.4
2018-Feb-17 10:31N 42°20' W 070°58'0 0.4
2018-Feb-17 09:59N 42°20' W 070°58'0 0.0
2018-Feb-17 09:29N 42°20' W 070°58'0 0.0
2018-Feb-17 08:59N 42°20' W 070°58'0 0.0
2018-Feb-17 08:20N 42°20' W 070°58'0 0.1
2018-Feb-17 07:59N 42°20' W 070°58'0 0.0
2018-Feb-17 07:29N 42°20' W 070°58'0 0.1
2018-Feb-17 06:59N 42°20' W 070°58'0 0.0
2018-Feb-17 06:29N 42°20' W 070°58'0 0.0
2018-Feb-17 05:59N 42°20' W 070°58'0 0.0
2018-Feb-17 05:29N 42°20' W 070°58'0 0.1
2018-Feb-17 04:56N 42°20' W 070°58'0 0.0
2018-Feb-17 04:29N 42°20' W 070°58'0 0.0
2018-Feb-17 03:59N 42°20' W 070°58'0 0.0
2018-Feb-17 03:29N 42°20' W 070°58'0 0.0
2018-Feb-17 02:59N 42°20' W 070°58'0 0.0
2018-Feb-17 02:29N 42°20' W 070°58'0 0.0
2018-Feb-17 01:59N 42°20' W 070°58'0 0.0
2018-Feb-17 01:29N 42°20' W 070°58'0 0.1
2018-Feb-17 00:59N 42°20' W 070°58'0 0.0
2018-Feb-17 00:29N 42°20' W 070°58'0 0.2
2018-Feb-16 23:59N 42°20' W 070°58'0 0.1
2018-Feb-16 23:26N 42°20' W 070°58'0 0.0
2018-Feb-16 22:59N 42°20' W 070°58'0 0.0
2018-Feb-16 22:29N 42°20' W 070°58'0 0.0
2018-Feb-16 21:59N 42°20' W 070°58'0 0.0
2018-Feb-16 21:29N 42°20' W 070°58'0 0.3
2018-Feb-16 20:50N 42°20' W 070°58'1 4.6
2018-Feb-16 20:31N 42°20' W 071°00'4 4.0
2018-Feb-16 19:33N 42°23' W 071°03'0 0.0
2018-Feb-16 19:24N 42°23' W 071°03'0 0.0
2018-Feb-16 18:09N 42°23' W 071°03'0 0.0
2018-Feb-16 17:51N 42°23' W 071°03'0 0.0
2018-Feb-16 17:21N 42°23' W 071°03'0 0.0
2018-Feb-16 16:21N 42°23' W 071°03'0 0.0
2018-Feb-16 06:27N 42°23' W 071°03'0 0.0
2018-Feb-16 04:45N 42°23' W 071°03'0 0.0
2018-Feb-16 04:27N 42°23' W 071°03'0 0.0
2018-Feb-16 03:57N 42°23' W 071°03'0 0.0
2018-Feb-16 03:21N 42°23' W 071°03'0 0.0
2018-Feb-16 00:21N 42°23' W 071°03'0 0.0
2018-Feb-15 21:04N 42°23' W 071°03'0 0.0
2018-Feb-15 21:00N 42°23' W 071°03'0 0.0
2018-Feb-15 20:30N 42°23' W 071°03'0 0.0
2018-Feb-15 20:00N 42°23' W 071°03'1 1.5
2018-Feb-15 19:31N 42°23' W 071°03'4 7.5
2018-Feb-15 19:00N 42°20' W 070°59'510.5
2018-Feb-15 18:30N 42°23' W 070°54'5 9.9
2018-Feb-15 18:00N 42°24' W 070°47'4 7.6
2018-Feb-15 17:30N 42°23' W 070°42'4 7.6
2018-Feb-15 17:00N 42°22' W 070°37'4 7.0
2018-Feb-15 16:30N 42°21' W 070°32'1 2.8
2018-Feb-15 16:00N 42°22' W 070°30'4 7.1
2018-Feb-15 15:30N 42°21' W 070°26'714.4
2018-Feb-15 15:01N 42°21' W 070°16'714.4
2018-Feb-15 14:30N 42°20' W 070°06'713.0
2018-Feb-15 14:00N 42°17' W 069°58'914.9
2018-Feb-15 13:25N 42°09' W 069°53'79 3.7
2018-Feb-14 16:18N 41°27' W 071°23'612.2
2018-Feb-14 15:50N 41°32' W 071°20'413.6
2018-Feb-14 15:30N 41°36' W 071°18'612.5
2018-Feb-14 15:00N 41°42' W 071°20'510.1
2018-Feb-14 14:30N 41°47' W 071°23'0 0.2
2018-Feb-14 12:42N 41°47' W 071°22'0 0.0
2018-Feb-14 10:12N 41°47' W 071°22'0 0.0
2018-Feb-14 09:48N 41°47' W 071°22'0 0.0
2018-Feb-14 09:30N 41°47' W 071°22'0 0.0
2018-Feb-14 08:48N 41°47' W 071°22'0 0.0
2018-Feb-14 07:48N 41°47' W 071°22'0 0.0
2018-Feb-14 07:12N 41°47' W 071°22'0 0.0
2018-Feb-14 06:54N 41°47' W 071°22'0 0.0
2018-Feb-14 06:30N 41°47' W 071°22'0 0.0
2018-Feb-14 05:06N 41°47' W 071°22'0 0.0
2018-Feb-14 04:48N 41°47' W 071°22'0 0.0
2018-Feb-14 04:30N 41°47' W 071°22'0 0.0
2018-Feb-14 04:00N 41°47' W 071°22'0 0.0
2018-Feb-14 03:30N 41°47' W 071°22'0 0.0
2018-Feb-14 02:54N 41°47' W 071°22'0 0.0
2018-Feb-14 02:30N 41°47' W 071°22'0 0.0
2018-Feb-14 01:24N 41°47' W 071°22'0 0.0
2018-Feb-14 01:00N 41°47' W 071°22'0 0.0
2018-Feb-14 00:30N 41°47' W 071°22'0 0.0
2018-Feb-14 00:00N 41°47' W 071°22'0 0.0
2018-Feb-13 23:30N 41°47' W 071°22'0 0.0
2018-Feb-13 17:36N 41°47' W 071°22'0 0.0
2018-Feb-13 17:24N 41°47' W 071°22'0 0.0
2018-Feb-13 16:48N 41°47' W 071°22'0 0.0
2018-Feb-13 16:24N 41°47' W 071°22'0 0.0
2018-Feb-13 15:54N 41°47' W 071°22'0 0.0
2018-Feb-13 15:30N 41°47' W 071°22'0 0.0
2018-Feb-13 04:51N 41°47' W 071°22'0 1.0
2018-Feb-13 04:30N 41°46' W 071°22'3 5.7
2018-Feb-13 04:00N 41°44' W 071°22'5 9.2
2018-Feb-13 03:30N 41°40' W 071°19'510.7
2018-Feb-13 03:00N 41°34' W 071°19'710.6
2018-Feb-13 02:19N 41°27' W 071°22'  
Track history (hours):
 
Tides and Currents Weather Stations Pressure Air Temp Water Temp Dewpoint Dewpoint Depression Visibility Wind Speed Wind Dir Waves Ship Positions

Unique Explorer

Last reported at 2018-Feb-17 13:43 UTC. Time now 2018-Feb-19 21:48 UTC.
Position N 42°25' W 070°05'.

Length 183 m; draft 8 m.

Type: Tanker. MMSI: 477786800.

Date/timePositionNaut miles runAvg speedWind from/ knotsBaromVisibWave heightAir tempDewpointWater temp
2018-Feb-17 13:43N 42°25' W 070°05'314.2
2018-Feb-17 13:30N 42°25' W 070°09'713.5
2018-Feb-17 13:00N 42°25' W 070°19'712.8
2018-Feb-17 12:30N 42°25' W 070°27'612.8
2018-Feb-17 12:00N 42°25' W 070°36'713.0
2018-Feb-17 11:30N 42°25' W 070°45'612.8
2018-Feb-17 11:00N 42°23' W 070°53'5 9.4
2018-Feb-17 10:31N 42°20' W 070°58'0 0.4
2018-Feb-17 09:59N 42°20' W 070°58'0 0.0
2018-Feb-17 09:29N 42°20' W 070°58'0 0.0
2018-Feb-17 08:59N 42°20' W 070°58'0 0.0
2018-Feb-17 08:20N 42°20' W 070°58'0 0.1
2018-Feb-17 07:59N 42°20' W 070°58'0 0.0
2018-Feb-17 07:29N 42°20' W 070°58'0 0.1
2018-Feb-17 06:59N 42°20' W 070°58'0 0.0
2018-Feb-17 06:29N 42°20' W 070°58'0 0.0
2018-Feb-17 05:59N 42°20' W 070°58'0 0.0
2018-Feb-17 05:29N 42°20' W 070°58'0 0.1
2018-Feb-17 04:56N 42°20' W 070°58'0 0.0
2018-Feb-17 04:29N 42°20' W 070°58'0 0.0
2018-Feb-17 03:59N 42°20' W 070°58'0 0.0
2018-Feb-17 03:29N 42°20' W 070°58'0 0.0
2018-Feb-17 02:59N 42°20' W 070°58'0 0.0
2018-Feb-17 02:29N 42°20' W 070°58'0 0.0
2018-Feb-17 01:59N 42°20' W 070°58'0 0.0
2018-Feb-17 01:29N 42°20' W 070°58'0 0.1
2018-Feb-17 00:59N 42°20' W 070°58'0 0.0
2018-Feb-17 00:29N 42°20' W 070°58'0 0.2
2018-Feb-16 23:59N 42°20' W 070°58'0 0.1
2018-Feb-16 23:26N 42°20' W 070°58'0 0.0
2018-Feb-16 22:59N 42°20' W 070°58'0 0.0
2018-Feb-16 22:29N 42°20' W 070°58'0 0.0
2018-Feb-16 21:59N 42°20' W 070°58'0 0.0
2018-Feb-16 21:29N 42°20' W 070°58'0 0.3
2018-Feb-16 20:50N 42°20' W 070°58'1 4.6
2018-Feb-16 20:31N 42°20' W 071°00'4 4.0
2018-Feb-16 19:33N 42°23' W 071°03'0 0.0
2018-Feb-16 19:24N 42°23' W 071°03'0 0.0
2018-Feb-16 18:09N 42°23' W 071°03'0 0.0
2018-Feb-16 17:51N 42°23' W 071°03'0 0.0
2018-Feb-16 17:21N 42°23' W 071°03'0 0.0
2018-Feb-16 16:21N 42°23' W 071°03'0 0.0
2018-Feb-16 06:27N 42°23' W 071°03'0 0.0
2018-Feb-16 04:45N 42°23' W 071°03'0 0.0
2018-Feb-16 04:27N 42°23' W 071°03'0 0.0
2018-Feb-16 03:57N 42°23' W 071°03'0 0.0
2018-Feb-16 03:21N 42°23' W 071°03'0 0.0
2018-Feb-16 00:21N 42°23' W 071°03'0 0.0
2018-Feb-15 21:04N 42°23' W 071°03'0 0.0
2018-Feb-15 21:00N 42°23' W 071°03'0 0.0
2018-Feb-15 20:30N 42°23' W 071°03'0 0.0
2018-Feb-15 20:00N 42°23' W 071°03'1 1.5
2018-Feb-15 19:31N 42°23' W 071°03'4 7.5
2018-Feb-15 19:00N 42°20' W 070°59'510.5
2018-Feb-15 18:30N 42°23' W 070°54'5 9.9
2018-Feb-15 18:00N 42°24' W 070°47'4 7.6
2018-Feb-15 17:30N 42°23' W 070°42'4 7.6
2018-Feb-15 17:00N 42°22' W 070°37'4 7.0
2018-Feb-15 16:30N 42°21' W 070°32'1 2.8
2018-Feb-15 16:00N 42°22' W 070°30'4 7.1
2018-Feb-15 15:30N 42°21' W 070°26'714.4
2018-Feb-15 15:01N 42°21' W 070°16'714.4
2018-Feb-15 14:30N 42°20' W 070°06'713.0
2018-Feb-15 14:00N 42°17' W 069°58'914.9
2018-Feb-15 13:25N 42°09' W 069°53'79 3.7
2018-Feb-14 16:18N 41°27' W 071°23'612.2
2018-Feb-14 15:50N 41°32' W 071°20'413.6
2018-Feb-14 15:30N 41°36' W 071°18'612.5
2018-Feb-14 15:00N 41°42' W 071°20'510.1
2018-Feb-14 14:30N 41°47' W 071°23'0 0.2
2018-Feb-14 12:42N 41°47' W 071°22'0 0.0
2018-Feb-14 10:12N 41°47' W 071°22'0 0.0
2018-Feb-14 09:48N 41°47' W 071°22'0 0.0
2018-Feb-14 09:30N 41°47' W 071°22'0 0.0
2018-Feb-14 08:48N 41°47' W 071°22'0 0.0
2018-Feb-14 07:48N 41°47' W 071°22'0 0.0
2018-Feb-14 07:12N 41°47' W 071°22'0 0.0
2018-Feb-14 06:54N 41°47' W 071°22'0 0.0
2018-Feb-14 06:30N 41°47' W 071°22'0 0.0
2018-Feb-14 05:06N 41°47' W 071°22'0 0.0
2018-Feb-14 04:48N 41°47' W 071°22'0 0.0
2018-Feb-14 04:30N 41°47' W 071°22'0 0.0
2018-Feb-14 04:00N 41°47' W 071°22'0 0.0
2018-Feb-14 03:30N 41°47' W 071°22'0 0.0
2018-Feb-14 02:54N 41°47' W 071°22'0 0.0
2018-Feb-14 02:30N 41°47' W 071°22'0 0.0
2018-Feb-14 01:24N 41°47' W 071°22'0 0.0
2018-Feb-14 01:00N 41°47' W 071°22'0 0.0
2018-Feb-14 00:30N 41°47' W 071°22'0 0.0
2018-Feb-14 00:00N 41°47' W 071°22'0 0.0
2018-Feb-13 23:30N 41°47' W 071°22'0 0.0
2018-Feb-13 17:36N 41°47' W 071°22'0 0.0
2018-Feb-13 17:24N 41°47' W 071°22'0 0.0
2018-Feb-13 16:48N 41°47' W 071°22'0 0.0
2018-Feb-13 16:24N 41°47' W 071°22'0 0.0
2018-Feb-13 15:54N 41°47' W 071°22'0 0.0
2018-Feb-13 15:30N 41°47' W 071°22'0 0.0
2018-Feb-13 04:51N 41°47' W 071°22'0 1.0
2018-Feb-13 04:30N 41°46' W 071°22'3 5.7
2018-Feb-13 04:00N 41°44' W 071°22'5 9.2
2018-Feb-13 03:30N 41°40' W 071°19'510.7
2018-Feb-13 03:00N 41°34' W 071°19'710.6
2018-Feb-13 02:19N 41°27' W 071°22'  

Dump ship's entire track history